sensor_id;sensor_type;location;lat;lon;timestamp;pressure;altitude;pressure_sealevel;temperature;humidity
2841;BME280;53423;49.224;12.074;2022-12-15T00:02:27;96500.34;;;-0.67;65.71
2841;BME280;53423;49.224;12.074;2022-12-15T00:05:13;96499.44;;;-1.41;67.50
2841;BME280;53423;49.224;12.074;2022-12-15T00:08:05;96499.47;;;-1.52;68.57
2841;BME280;53423;49.224;12.074;2022-12-15T00:10:50;96510.03;;;-1.23;66.95
2841;BME280;53423;49.224;12.074;2022-12-15T00:13:35;96506.38;;;-1.09;66.59
2841;BME280;53423;49.224;12.074;2022-12-15T00:16:22;96500.28;;;-1.08;66.16
2841;BME280;53423;49.224;12.074;2022-12-15T00:19:08;96502.97;;;-1.10;66.88
2841;BME280;53423;49.224;12.074;2022-12-15T00:21:53;96511.53;;;-1.20;66.49
2841;BME280;53423;49.224;12.074;2022-12-15T00:24:39;96519.78;;;-1.06;65.87
2841;BME280;53423;49.224;12.074;2022-12-15T00:27:24;96531.50;;;-1.24;67.10
2841;BME280;53423;49.224;12.074;2022-12-15T00:30:10;96524.63;;;-0.92;66.25
2841;BME280;53423;49.224;12.074;2022-12-15T00:32:57;96522.47;;;-0.76;66.08
2841;BME280;53423;49.224;12.074;2022-12-15T00:35:43;96526.06;;;-0.67;65.60
2841;BME280;53423;49.224;12.074;2022-12-15T00:38:28;96521.53;;;-0.54;65.27
2841;BME280;53423;49.224;12.074;2022-12-15T00:41:10;96527.28;;;-0.62;65.31
2841;BME280;53423;49.224;12.074;2022-12-15T00:43:42;96537.72;;;-0.43;64.60
2841;BME280;53423;49.224;12.074;2022-12-15T00:46:11;96559.16;;;-0.42;64.44
2841;BME280;53423;49.224;12.074;2022-12-15T00:48:58;96540.69;;;-0.47;64.74
2841;BME280;53423;49.224;12.074;2022-12-15T00:51:26;96555.03;;;-0.45;65.08
2841;BME280;53423;49.224;12.074;2022-12-15T00:54:11;96552.16;;;-0.51;65.22
2841;BME280;53423;49.224;12.074;2022-12-15T00:56:56;96547.91;;;-0.41;64.85
2841;BME280;53423;49.224;12.074;2022-12-15T00:59:42;96556.19;;;-0.38;64.12
2841;BME280;53423;49.224;12.074;2022-12-15T01:02:27;96559.59;;;-0.37;63.92
2841;BME280;53423;49.224;12.074;2022-12-15T01:05:14;96557.56;;;-0.54;64.51
2841;BME280;53423;49.224;12.074;2022-12-15T01:07:59;96557.75;;;-0.46;64.58
2841;BME280;53423;49.224;12.074;2022-12-15T01:10:45;96562.97;;;-0.57;65.03
2841;BME280;53423;49.224;12.074;2022-12-15T01:13:30;96568.34;;;-0.40;64.22
2841;BME280;53423;49.224;12.074;2022-12-15T01:16:16;96570.09;;;-0.40;63.82
2841;BME280;53423;49.224;12.074;2022-12-15T01:19:01;96577.94;;;-0.42;64.01
2841;BME280;53423;49.224;12.074;2022-12-15T01:21:51;96574.25;;;-0.28;63.04
2841;BME280;53423;49.224;12.074;2022-12-15T01:24:19;96581.78;;;-0.36;63.70
2841;BME280;53423;49.224;12.074;2022-12-15T01:26:46;96591.75;;;-0.43;63.99
2841;BME280;53423;49.224;12.074;2022-12-15T01:29:14;96598.41;;;-0.40;64.24
2841;BME280;53423;49.224;12.074;2022-12-15T01:31:42;96595.91;;;-0.51;64.51
2841;BME280;53423;49.224;12.074;2022-12-15T01:34:15;96599.91;;;-0.58;64.75
2841;BME280;53423;49.224;12.074;2022-12-15T01:36:45;96602.78;;;-0.52;64.23
2841;BME280;53423;49.224;12.074;2022-12-15T01:39:14;96601.09;;;-0.42;64.11
2841;BME280;53423;49.224;12.074;2022-12-15T01:41:42;96608.47;;;-0.37;63.86
2841;BME280;53423;49.224;12.074;2022-12-15T01:44:17;96613.97;;;-0.42;64.09
2841;BME280;53423;49.224;12.074;2022-12-15T01:46:46;96613.94;;;-0.31;63.42
2841;BME280;53423;49.224;12.074;2022-12-15T01:49:17;96610.41;;;-0.30;64.04
2841;BME280;53423;49.224;12.074;2022-12-15T01:51:49;96601.25;;;-0.23;63.53
2841;BME280;53423;49.224;12.074;2022-12-15T01:54:22;96603.53;;;-0.29;63.78
2841;BME280;53423;49.224;12.074;2022-12-15T01:56:54;96592.28;;;-0.28;64.47
2841;BME280;53423;49.224;12.074;2022-12-15T01:59:26;96616.31;;;-0.39;64.68
2841;BME280;53423;49.224;12.074;2022-12-15T02:01:55;96630.63;;;-0.25;64.04
2841;BME280;53423;49.224;12.074;2022-12-15T02:04:23;96635.28;;;-0.19;63.14
2841;BME280;53423;49.224;12.074;2022-12-15T02:06:51;96626.00;;;-0.11;63.67
2841;BME280;53423;49.224;12.074;2022-12-15T02:09:21;96631.19;;;-0.22;63.85
2841;BME280;53423;49.224;12.074;2022-12-15T02:11:58;96638.13;;;-0.22;64.13
2841;BME280;53423;49.224;12.074;2022-12-15T02:14:38;96631.69;;;-0.28;64.11
2841;BME280;53423;49.224;12.074;2022-12-15T02:17:21;96639.03;;;-0.23;64.28
2841;BME280;53423;49.224;12.074;2022-12-15T02:23:38;96642.53;;;-0.45;65.55
2841;BME280;53423;49.224;12.074;2022-12-15T02:26:29;96641.28;;;-0.30;64.76
2841;BME280;53423;49.224;12.074;2022-12-15T02:29:10;96630.00;;;-0.18;64.36
2841;BME280;53423;49.224;12.074;2022-12-15T02:31:49;96621.47;;;-0.39;65.13
2841;BME280;53423;49.224;12.074;2022-12-15T02:34:24;96629.97;;;-0.38;65.16
2841;BME280;53423;49.224;12.074;2022-12-15T02:36:56;96646.53;;;-0.52;65.77
2841;BME280;53423;49.224;12.074;2022-12-15T02:39:25;96658.34;;;-0.49;65.35
2841;BME280;53423;49.224;12.074;2022-12-15T02:41:53;96668.25;;;-0.45;65.63
2841;BME280;53423;49.224;12.074;2022-12-15T02:44:23;96675.50;;;-0.39;65.36
2841;BME280;53423;49.224;12.074;2022-12-15T02:47:14;96672.47;;;-0.44;65.26
2841;BME280;53423;49.224;12.074;2022-12-15T02:49:58;96664.44;;;-0.19;64.30
2841;BME280;53423;49.224;12.074;2022-12-15T02:52:43;96660.78;;;-0.16;63.57
2841;BME280;53423;49.224;12.074;2022-12-15T02:55:19;96641.31;;;-0.09;64.34
2841;BME280;53423;49.224;12.074;2022-12-15T02:57:53;96637.47;;;-0.15;64.09
2841;BME280;53423;49.224;12.074;2022-12-15T03:00:23;96648.34;;;-0.11;64.13
2841;BME280;53423;49.224;12.074;2022-12-15T03:02:53;96653.13;;;-0.27;64.71
2841;BME280;53423;49.224;12.074;2022-12-15T03:05:23;96649.06;;;-0.41;65.51
2841;BME280;53423;49.224;12.074;2022-12-15T03:07:52;96663.94;;;-0.44;65.87
2841;BME280;53423;49.224;12.074;2022-12-15T03:10:22;96678.09;;;-0.50;66.60
2841;BME280;53423;49.224;12.074;2022-12-15T03:12:51;96682.88;;;-0.45;66.59
2841;BME280;53423;49.224;12.074;2022-12-15T03:15:20;96698.41;;;-0.36;65.81
2841;BME280;53423;49.224;12.074;2022-12-15T03:17:47;96689.16;;;-0.27;65.36
2841;BME280;53423;49.224;12.074;2022-12-15T03:20:16;96686.31;;;-0.24;65.74
2841;BME280;53423;49.224;12.074;2022-12-15T03:22:44;96680.69;;;-0.18;65.39
2841;BME280;53423;49.224;12.074;2022-12-15T03:25:12;96690.69;;;-0.36;65.88
2841;BME280;53423;49.224;12.074;2022-12-15T03:27:40;96690.94;;;-0.39;65.63
2841;BME280;53423;49.224;12.074;2022-12-15T03:30:08;96681.78;;;-0.32;65.80
2841;BME280;53423;49.224;12.074;2022-12-15T03:32:36;96688.47;;;-0.40;66.02
2841;BME280;53423;49.224;12.074;2022-12-15T03:35:04;96673.13;;;-0.31;65.64
2841;BME280;53423;49.224;12.074;2022-12-15T03:37:34;96666.88;;;-0.17;65.00
2841;BME280;53423;49.224;12.074;2022-12-15T03:40:02;96675.50;;;-0.39;65.87
2841;BME280;53423;49.224;12.074;2022-12-15T03:42:29;96669.81;;;-0.22;65.43
2841;BME280;53423;49.224;12.074;2022-12-15T03:45:14;96681.44;;;-0.27;65.39
2841;BME280;53423;49.224;12.074;2022-12-15T03:47:44;96685.81;;;-0.39;65.74
2841;BME280;53423;49.224;12.074;2022-12-15T03:50:14;96689.50;;;-0.32;65.65
2841;BME280;53423;49.224;12.074;2022-12-15T03:52:44;96692.19;;;-0.22;65.24
2841;BME280;53423;49.224;12.074;2022-12-15T03:55:11;96693.63;;;-0.40;65.64
2841;BME280;53423;49.224;12.074;2022-12-15T03:57:39;96691.94;;;-0.30;65.49
2841;BME280;53423;49.224;12.074;2022-12-15T04:00:09;96710.06;;;-0.21;65.31
2841;BME280;53423;49.224;12.074;2022-12-15T04:02:38;96702.22;;;-0.19;65.02
2841;BME280;53423;49.224;12.074;2022-12-15T04:05:06;96691.28;;;-0.12;64.84
2841;BME280;53423;49.224;12.074;2022-12-15T04:07:34;96703.31;;;-0.33;65.74
2841;BME280;53423;49.224;12.074;2022-12-15T04:10:04;96711.06;;;-0.44;65.83
2841;BME280;53423;49.224;12.074;2022-12-15T04:12:32;96706.72;;;-0.43;66.14
2841;BME280;53423;49.224;12.074;2022-12-15T04:15:00;96716.91;;;-0.42;66.21
2841;BME280;53423;49.224;12.074;2022-12-15T04:17:27;96726.16;;;-0.39;65.91
2841;BME280;53423;49.224;12.074;2022-12-15T04:19:55;96721.59;;;-0.47;66.54
2841;BME280;53423;49.224;12.074;2022-12-15T04:22:34;96715.03;;;-0.29;66.17
2841;BME280;53423;49.224;12.074;2022-12-15T04:25:04;96721.22;;;0.00;64.98
2841;BME280;53423;49.224;12.074;2022-12-15T04:27:50;96734.59;;;-0.06;65.01
2841;BME280;53423;49.224;12.074;2022-12-15T04:30:36;96725.56;;;0.00;64.44
2841;BME280;53423;49.224;12.074;2022-12-15T04:33:22;96735.44;;;-0.16;65.26
2841;BME280;53423;49.224;12.074;2022-12-15T04:36:10;96752.13;;;-0.42;66.13
2841;BME280;53423;49.224;12.074;2022-12-15T04:38:58;96748.59;;;-0.41;66.29
2841;BME280;53423;49.224;12.074;2022-12-15T04:41:45;96736.06;;;-0.35;65.75
2841;BME280;53423;49.224;12.074;2022-12-15T04:44:30;96730.81;;;-0.33;65.58
2841;BME280;53423;49.224;12.074;2022-12-15T04:47:15;96733.03;;;-0.29;65.81
2841;BME280;53423;49.224;12.074;2022-12-15T04:50:00;96745.31;;;-0.32;66.03
2841;BME280;53423;49.224;12.074;2022-12-15T04:52:46;96743.50;;;-0.52;66.93
2841;BME280;53423;49.224;12.074;2022-12-15T04:55:33;96751.84;;;-0.28;66.15
2841;BME280;53423;49.224;12.074;2022-12-15T04:58:20;96753.06;;;-0.43;66.69
2841;BME280;53423;49.224;12.074;2022-12-15T05:01:06;96748.81;;;-0.22;65.70
2841;BME280;53423;49.224;12.074;2022-12-15T05:03:51;96758.41;;;-0.35;65.58
2841;BME280;53423;49.224;12.074;2022-12-15T05:06:36;96765.28;;;-0.25;65.62
2841;BME280;53423;49.224;12.074;2022-12-15T05:09:22;96781.25;;;-0.42;66.06
2841;BME280;53423;49.224;12.074;2022-12-15T05:12:07;96803.47;;;-0.41;66.42
2841;BME280;53423;49.224;12.074;2022-12-15T05:14:54;96821.97;;;-0.58;67.35
2841;BME280;53423;49.224;12.074;2022-12-15T05:17:40;96805.22;;;-0.41;66.80
2841;BME280;53423;49.224;12.074;2022-12-15T05:20:25;96800.63;;;-0.16;66.07
2841;BME280;53423;49.224;12.074;2022-12-15T05:23:15;96788.09;;;-0.20;65.82
2841;BME280;53423;49.224;12.074;2022-12-15T05:26:00;96779.38;;;-0.29;65.73
2841;BME280;53423;49.224;12.074;2022-12-15T05:28:45;96787.78;;;-0.38;66.20
2841;BME280;53423;49.224;12.074;2022-12-15T05:31:32;96783.47;;;-0.48;66.07
2841;BME280;53423;49.224;12.074;2022-12-15T05:34:20;96790.25;;;-0.36;65.79
2841;BME280;53423;49.224;12.074;2022-12-15T05:36:48;96802.66;;;-0.41;65.51
2841;BME280;53423;49.224;12.074;2022-12-15T05:39:16;96815.28;;;-0.38;65.87
2841;BME280;53423;49.224;12.074;2022-12-15T05:41:43;96823.56;;;-0.35;65.33
2841;BME280;53423;49.224;12.074;2022-12-15T05:44:11;96824.19;;;-0.42;65.90
2841;BME280;53423;49.224;12.074;2022-12-15T05:46:40;96815.06;;;-0.46;65.55
2841;BME280;53423;49.224;12.074;2022-12-15T05:49:11;96809.66;;;-0.43;66.12
2841;BME280;53423;49.224;12.074;2022-12-15T05:51:41;96805.81;;;-0.38;65.64
2841;BME280;53423;49.224;12.074;2022-12-15T05:54:11;96812.25;;;-0.32;65.30
2841;BME280;53423;49.224;12.074;2022-12-15T05:56:40;96796.44;;;-0.28;65.39
2841;BME280;53423;49.224;12.074;2022-12-15T05:59:08;96787.78;;;-0.38;65.75
2841;BME280;53423;49.224;12.074;2022-12-15T06:01:36;96803.16;;;-0.69;66.90
2841;BME280;53423;49.224;12.074;2022-12-15T06:04:05;96807.56;;;-0.60;66.76
2841;BME280;53423;49.224;12.074;2022-12-15T06:06:34;96801.16;;;-0.66;67.06
2841;BME280;53423;49.224;12.074;2022-12-15T06:09:01;96819.63;;;-0.61;66.61
2841;BME280;53423;49.224;12.074;2022-12-15T06:11:30;96813.56;;;-0.71;66.59
2841;BME280;53423;49.224;12.074;2022-12-15T06:13:57;96807.72;;;-0.73;66.88
2841;BME280;53423;49.224;12.074;2022-12-15T06:16:26;96821.50;;;-0.63;66.29
2841;BME280;53423;49.224;12.074;2022-12-15T06:18:56;96832.25;;;-0.80;67.04
2841;BME280;53423;49.224;12.074;2022-12-15T06:21:26;96847.31;;;-0.75;67.20
2841;BME280;53423;49.224;12.074;2022-12-15T06:23:55;96843.84;;;-0.52;66.67
2841;BME280;53423;49.224;12.074;2022-12-15T06:26:25;96841.72;;;-0.47;65.71
2841;BME280;53423;49.224;12.074;2022-12-15T06:28:54;96842.53;;;-0.47;66.08
2841;BME280;53423;49.224;12.074;2022-12-15T06:31:22;96842.78;;;-0.39;65.61
2841;BME280;53423;49.224;12.074;2022-12-15T06:33:51;96844.16;;;-0.35;65.06
2841;BME280;53423;49.224;12.074;2022-12-15T06:36:29;96852.59;;;-0.44;65.45
2841;BME280;53423;49.224;12.074;2022-12-15T06:38:57;96860.44;;;-0.56;66.00
2841;BME280;53423;49.224;12.074;2022-12-15T06:41:26;96846.03;;;-0.59;65.82
2841;BME280;53423;49.224;12.074;2022-12-15T06:43:55;96867.94;;;-0.64;66.44
2841;BME280;53423;49.224;12.074;2022-12-15T06:46:24;96880.91;;;-0.55;65.96
2841;BME280;53423;49.224;12.074;2022-12-15T06:48:52;96875.88;;;-0.45;65.82
2841;BME280;53423;49.224;12.074;2022-12-15T06:51:20;96885.56;;;-0.49;65.62
2841;BME280;53423;49.224;12.074;2022-12-15T06:53:49;96890.28;;;-0.43;65.87
2841;BME280;53423;49.224;12.074;2022-12-15T06:56:21;96886.28;;;-0.25;65.22
2841;BME280;53423;49.224;12.074;2022-12-15T06:58:59;96884.75;;;-0.38;65.79
2841;BME280;53423;49.224;12.074;2022-12-15T07:01:27;96881.63;;;-0.31;64.87
2841;BME280;53423;49.224;12.074;2022-12-15T07:03:56;96874.59;;;-0.40;65.32
2841;BME280;53423;49.224;12.074;2022-12-15T07:06:26;96884.53;;;-0.46;65.56
2841;BME280;53423;49.224;12.074;2022-12-15T07:08:56;96884.28;;;-0.43;65.43
2841;BME280;53423;49.224;12.074;2022-12-15T07:11:24;96872.13;;;-0.19;65.20
2841;BME280;53423;49.224;12.074;2022-12-15T07:13:52;96884.63;;;-0.15;64.90
2841;BME280;53423;49.224;12.074;2022-12-15T07:16:21;96887.69;;;-0.21;65.32
2841;BME280;53423;49.224;12.074;2022-12-15T07:18:50;96889.06;;;-0.17;65.37
2841;BME280;53423;49.224;12.074;2022-12-15T07:21:18;96881.34;;;-0.06;65.07
2841;BME280;53423;49.224;12.074;2022-12-15T07:23:46;96871.19;;;-0.07;64.70
2841;BME280;53423;49.224;12.074;2022-12-15T07:26:24;96877.50;;;-0.33;65.12
2841;BME280;53423;49.224;12.074;2022-12-15T07:28:52;96879.97;;;-0.54;66.39
2841;BME280;53423;49.224;12.074;2022-12-15T07:31:21;96875.19;;;-0.47;65.23
2841;BME280;53423;49.224;12.074;2022-12-15T07:33:49;96882.91;;;-0.36;65.78
2841;BME280;53423;49.224;12.074;2022-12-15T07:36:19;96888.72;;;-0.45;66.34
2841;BME280;53423;49.224;12.074;2022-12-15T07:38:47;96893.06;;;-0.35;66.04
2841;BME280;53423;49.224;12.074;2022-12-15T07:41:17;96885.09;;;-0.32;65.68
2841;BME280;53423;49.224;12.074;2022-12-15T07:43:46;96889.56;;;-0.45;66.00
2841;BME280;53423;49.224;12.074;2022-12-15T07:46:15;96890.16;;;-0.41;65.38
2841;BME280;53423;49.224;12.074;2022-12-15T07:48:43;96893.53;;;-0.52;66.44
2841;BME280;53423;49.224;12.074;2022-12-15T07:51:17;96881.97;;;-0.46;66.88
2841;BME280;53423;49.224;12.074;2022-12-15T07:53:46;96892.59;;;-0.51;66.93
2841;BME280;53423;49.224;12.074;2022-12-15T07:56:14;96890.50;;;-0.46;66.81
2841;BME280;53423;49.224;12.074;2022-12-15T07:58:42;96896.56;;;-0.58;67.22
2841;BME280;53423;49.224;12.074;2022-12-15T08:01:12;96899.97;;;-0.35;66.78
2841;BME280;53423;49.224;12.074;2022-12-15T08:03:41;96909.81;;;-0.29;66.69
2841;BME280;53423;49.224;12.074;2022-12-15T08:06:10;96910.88;;;-0.21;66.05
2841;BME280;53423;49.224;12.074;2022-12-15T08:08:39;96902.66;;;-0.15;66.21
2841;BME280;53423;49.224;12.074;2022-12-15T08:11:08;96906.28;;;-0.06;65.63
2841;BME280;53423;49.224;12.074;2022-12-15T08:13:37;96916.34;;;-0.14;65.93
2841;BME280;53423;49.224;12.074;2022-12-15T08:16:27;96915.91;;;-0.19;65.84
2841;BME280;53423;49.224;12.074;2022-12-15T08:18:55;96915.41;;;-0.02;65.36
2841;BME280;53423;49.224;12.074;2022-12-15T08:21:23;96920.22;;;-0.09;65.18
2841;BME280;53423;49.224;12.074;2022-12-15T08:23:51;96923.03;;;-0.01;65.24
2841;BME280;53423;49.224;12.074;2022-12-15T08:26:19;96918.34;;;0.05;64.87
2841;BME280;53423;49.224;12.074;2022-12-15T08:28:55;96937.66;;;0.10;64.50
2841;BME280;53423;49.224;12.074;2022-12-15T08:31:44;96939.06;;;0.03;64.82
2841;BME280;53423;49.224;12.074;2022-12-15T08:34:12;96948.50;;;0.25;64.17
2841;BME280;53423;49.224;12.074;2022-12-15T08:36:40;96942.22;;;0.07;63.97
2841;BME280;53423;49.224;12.074;2022-12-15T08:39:07;96950.41;;;0.12;63.61
2841;BME280;53423;49.224;12.074;2022-12-15T08:41:35;96936.00;;;0.20;63.32
2841;BME280;53423;49.224;12.074;2022-12-15T08:44:03;96947.22;;;0.19;63.57
2841;BME280;53423;49.224;12.074;2022-12-15T08:46:32;96947.31;;;0.29;62.79
2841;BME280;53423;49.224;12.074;2022-12-15T08:49:02;96940.28;;;0.31;62.80
2841;BME280;53423;49.224;12.074;2022-12-15T08:51:31;96933.19;;;0.23;62.79
2841;BME280;53423;49.224;12.074;2022-12-15T08:54:00;96942.56;;;0.67;62.07
2841;BME280;53423;49.224;12.074;2022-12-15T08:56:28;96947.88;;;0.86;59.68
2841;BME280;53423;49.224;12.074;2022-12-15T08:58:58;96960.25;;;1.03;61.08
2841;BME280;53423;49.224;12.074;2022-12-15T09:01:28;96961.06;;;0.72;60.35
2841;BME280;53423;49.224;12.074;2022-12-15T09:03:57;96960.03;;;0.63;61.55
2841;BME280;53423;49.224;12.074;2022-12-15T09:06:29;96969.13;;;0.78;60.86
2841;BME280;53423;49.224;12.074;2022-12-15T09:09:00;96953.56;;;1.00;61.01
2841;BME280;53423;49.224;12.074;2022-12-15T09:11:29;96973.59;;;0.76;61.23
2841;BME280;53423;49.224;12.074;2022-12-15T09:13:57;96984.41;;;0.59;62.60
2841;BME280;53423;49.224;12.074;2022-12-15T09:16:26;96986.28;;;1.00;60.96
2841;BME280;53423;49.224;12.074;2022-12-15T09:18:55;96988.63;;;1.03;60.60
2841;BME280;53423;49.224;12.074;2022-12-15T09:21:26;96986.00;;;1.14;59.83
2841;BME280;53423;49.224;12.074;2022-12-15T09:23:57;96985.81;;;1.26;59.48
2841;BME280;53423;49.224;12.074;2022-12-15T09:26:27;96988.94;;;1.41;58.94
2841;BME280;53423;49.224;12.074;2022-12-15T09:28:56;96983.44;;;1.35;59.79
2841;BME280;53423;49.224;12.074;2022-12-15T09:31:26;96980.63;;;1.38;58.84
2841;BME280;53423;49.224;12.074;2022-12-15T09:33:56;96976.56;;;1.65;58.29
2841;BME280;53423;49.224;12.074;2022-12-15T09:36:26;96978.97;;;2.08;56.65
2841;BME280;53423;49.224;12.074;2022-12-15T09:38:55;96969.25;;;3.18;53.03
2841;BME280;53423;49.224;12.074;2022-12-15T09:41:24;96959.34;;;3.04;54.74
2841;BME280;53423;49.224;12.074;2022-12-15T09:43:55;96942.72;;;3.16;54.20
2841;BME280;53423;49.224;12.074;2022-12-15T09:46:35;96946.38;;;2.75;54.62
2841;BME280;53423;49.224;12.074;2022-12-15T09:49:11;96965.31;;;2.95;53.64
2841;BME280;53423;49.224;12.074;2022-12-15T09:51:49;96955.41;;;4.21;50.86
2841;BME280;53423;49.224;12.074;2022-12-15T09:54:19;96953.94;;;4.18;50.20
2841;BME280;53423;49.224;12.074;2022-12-15T09:56:51;96949.75;;;3.52;51.66
2841;BME280;53423;49.224;12.074;2022-12-15T09:59:28;96944.56;;;2.57;54.19
2841;BME280;53423;49.224;12.074;2022-12-15T10:02:18;96935.06;;;2.57;54.74
2841;BME280;53423;49.224;12.074;2022-12-15T10:04:55;96933.47;;;2.26;55.00
2841;BME280;53423;49.224;12.074;2022-12-15T10:07:31;96939.75;;;1.43;57.57
2841;BME280;53423;49.224;12.074;2022-12-15T10:10:04;96935.91;;;1.88;57.57
2841;BME280;53423;49.224;12.074;2022-12-15T10:12:36;96938.63;;;1.86;58.17
2841;BME280;53423;49.224;12.074;2022-12-15T10:15:23;96915.47;;;1.55;59.03
2841;BME280;53423;49.224;12.074;2022-12-15T10:17:59;96908.09;;;1.41;58.45
2841;BME280;53423;49.224;12.074;2022-12-15T10:20:29;96911.72;;;1.38;58.46
2841;BME280;53423;49.224;12.074;2022-12-15T10:23:01;96920.34;;;1.78;57.89
2841;BME280;53423;49.224;12.074;2022-12-15T10:25:36;96920.78;;;1.53;58.44
2841;BME280;53423;49.224;12.074;2022-12-15T10:28:25;96925.19;;;1.62;56.74
2841;BME280;53423;49.224;12.074;2022-12-15T10:30:59;96917.69;;;1.59;57.64
2841;BME280;53423;49.224;12.074;2022-12-15T10:33:30;96925.59;;;1.58;57.20
2841;BME280;53423;49.224;12.074;2022-12-15T10:36:06;96927.34;;;1.16;58.69
2841;BME280;53423;49.224;12.074;2022-12-15T10:38:38;96916.78;;;1.70;57.29
2841;BME280;53423;49.224;12.074;2022-12-15T10:41:09;96917.47;;;1.42;57.47
2841;BME280;53423;49.224;12.074;2022-12-15T10:43:39;96924.75;;;1.57;58.42
2841;BME280;53423;49.224;12.074;2022-12-15T10:46:11;96911.72;;;1.38;59.49
2841;BME280;53423;49.224;12.074;2022-12-15T10:48:41;96903.41;;;2.34;55.99
2841;BME280;53423;49.224;12.074;2022-12-15T10:51:17;96894.91;;;2.13;57.54
2841;BME280;53423;49.224;12.074;2022-12-15T10:53:49;96900.53;;;2.18;55.80
2841;BME280;53423;49.224;12.074;2022-12-15T10:56:23;96879.59;;;2.31;55.84
2841;BME280;53423;49.224;12.074;2022-12-15T10:59:00;96883.44;;;2.46;55.62
2841;BME280;53423;49.224;12.074;2022-12-15T11:01:31;96876.59;;;2.16;55.90
2841;BME280;53423;49.224;12.074;2022-12-15T11:03:59;96872.94;;;2.28;56.65
2841;BME280;53423;49.224;12.074;2022-12-15T11:06:29;96861.53;;;2.60;56.17
2841;BME280;53423;49.224;12.074;2022-12-15T11:09:08;96853.50;;;2.43;55.57
2841;BME280;53423;49.224;12.074;2022-12-15T11:11:49;96866.72;;;1.91;57.28
2841;BME280;53423;49.224;12.074;2022-12-15T11:14:42;96859.59;;;2.23;57.09
2841;BME280;53423;49.224;12.074;2022-12-15T11:17:14;96857.81;;;2.24;56.37
2841;BME280;53423;49.224;12.074;2022-12-15T11:19:48;96855.75;;;2.08;56.75
2841;BME280;53423;49.224;12.074;2022-12-15T11:22:30;96842.84;;;2.27;55.51
2841;BME280;53423;49.224;12.074;2022-12-15T11:25:12;96868.03;;;1.76;57.48
2841;BME280;53423;49.224;12.074;2022-12-15T11:27:48;96861.00;;;1.88;56.69
2841;BME280;53423;49.224;12.074;2022-12-15T11:30:19;96870.50;;;1.87;57.98
2841;BME280;53423;49.224;12.074;2022-12-15T11:32:51;96876.03;;;1.73;58.87
2841;BME280;53423;49.224;12.074;2022-12-15T11:35:24;96874.25;;;1.64;58.35
2841;BME280;53423;49.224;12.074;2022-12-15T11:37:55;96879.72;;;1.80;58.52
2841;BME280;53423;49.224;12.074;2022-12-15T11:40:33;96874.06;;;1.86;57.10
2841;BME280;53423;49.224;12.074;2022-12-15T11:43:15;96876.69;;;1.66;58.28
2841;BME280;53423;49.224;12.074;2022-12-15T11:45:50;96876.41;;;1.69;58.88
2841;BME280;53423;49.224;12.074;2022-12-15T11:48:28;96871.72;;;1.53;59.58
2841;BME280;53423;49.224;12.074;2022-12-15T11:51:01;96863.13;;;1.73;58.91
2841;BME280;53423;49.224;12.074;2022-12-15T11:56:31;96875.78;;;1.46;58.68
2841;BME280;53423;49.224;12.074;2022-12-15T11:59:14;96870.69;;;1.65;58.55
2841;BME280;53423;49.224;12.074;2022-12-15T12:02:00;96860.31;;;1.46;60.03
2841;BME280;53423;49.224;12.074;2022-12-15T12:04:39;96867.38;;;1.54;59.57
2841;BME280;53423;49.224;12.074;2022-12-15T12:07:20;96859.88;;;1.71;59.11
2841;BME280;53423;49.224;12.074;2022-12-15T12:10:01;96859.88;;;1.71;59.04
2841;BME280;53423;49.224;12.074;2022-12-15T12:12:37;96857.47;;;1.89;58.62
2841;BME280;53423;49.224;12.074;2022-12-15T12:15:22;96843.19;;;1.85;58.77
2841;BME280;53423;49.224;12.074;2022-12-15T12:17:52;96850.63;;;1.78;58.69
2841;BME280;53423;49.224;12.074;2022-12-15T12:20:25;96829.31;;;1.86;59.17
2841;BME280;53423;49.224;12.074;2022-12-15T12:22:59;96824.56;;;1.81;58.83
2841;BME280;53423;49.224;12.074;2022-12-15T12:25:30;96822.31;;;1.67;59.16
2841;BME280;53423;49.224;12.074;2022-12-15T12:28:04;96818.78;;;1.68;59.08
2841;BME280;53423;49.224;12.074;2022-12-15T12:30:38;96828.09;;;1.50;59.35
2841;BME280;53423;49.224;12.074;2022-12-15T12:33:11;96838.22;;;1.63;59.24
2841;BME280;53423;49.224;12.074;2022-12-15T12:35:46;96823.44;;;1.74;59.22
2841;BME280;53423;49.224;12.074;2022-12-15T12:38:19;96832.63;;;1.58;60.09
2841;BME280;53423;49.224;12.074;2022-12-15T12:40:57;96851.16;;;1.72;59.81
2841;BME280;53423;49.224;12.074;2022-12-15T12:43:32;96844.41;;;1.81;59.56
2841;BME280;53423;49.224;12.074;2022-12-15T12:46:06;96843.47;;;1.91;58.66
2841;BME280;53423;49.224;12.074;2022-12-15T12:48:38;96842.09;;;1.87;58.70
2841;BME280;53423;49.224;12.074;2022-12-15T12:51:12;96842.22;;;1.86;57.85
2841;BME280;53423;49.224;12.074;2022-12-15T12:53:44;96844.13;;;1.84;58.95
2841;BME280;53423;49.224;12.074;2022-12-15T12:56:34;96844.53;;;1.79;58.56
2841;BME280;53423;49.224;12.074;2022-12-15T12:59:36;96832.47;;;1.89;58.86
2841;BME280;53423;49.224;12.074;2022-12-15T13:02:44;96824.28;;;1.75;59.08
2841;BME280;53423;49.224;12.074;2022-12-15T13:05:30;96832.38;;;1.70;59.40
2841;BME280;53423;49.224;12.074;2022-12-15T13:08:26;96833.66;;;1.85;59.29
2841;BME280;53423;49.224;12.074;2022-12-15T13:10:54;96825.69;;;1.98;58.32
2841;BME280;53423;49.224;12.074;2022-12-15T13:13:43;96819.91;;;1.75;59.12
2841;BME280;53423;49.224;12.074;2022-12-15T13:16:34;96817.75;;;1.80;59.06
2841;BME280;53423;49.224;12.074;2022-12-15T13:19:07;96809.97;;;1.71;59.46
2841;BME280;53423;49.224;12.074;2022-12-15T13:21:53;96801.81;;;1.75;59.34
2841;BME280;53423;49.224;12.074;2022-12-15T13:24:29;96792.59;;;1.82;59.88
2841;BME280;53423;49.224;12.074;2022-12-15T13:27:11;96793.97;;;1.37;60.53
2841;BME280;53423;49.224;12.074;2022-12-15T13:29:56;96796.66;;;1.75;59.21
2841;BME280;53423;49.224;12.074;2022-12-15T13:32:28;96798.53;;;1.64;59.94
2841;BME280;53423;49.224;12.074;2022-12-15T13:35:04;96799.91;;;1.68;59.69
2841;BME280;53423;49.224;12.074;2022-12-15T13:37:47;96795.78;;;1.56;60.13
2841;BME280;53423;49.224;12.074;2022-12-15T13:40:29;96798.25;;;1.67;60.08
2841;BME280;53423;49.224;12.074;2022-12-15T13:43:08;96790.03;;;1.82;59.66
2841;BME280;53423;49.224;12.074;2022-12-15T13:45:46;96777.19;;;1.62;60.04
2841;BME280;53423;49.224;12.074;2022-12-15T13:48:30;96770.75;;;1.47;60.46
2841;BME280;53423;49.224;12.074;2022-12-15T13:51:11;96760.72;;;1.53;60.53
2841;BME280;53423;49.224;12.074;2022-12-15T13:53:47;96756.19;;;1.36;60.40